createdAt,value
2022-09-11T00:01:44.777Z,100.00
2022-09-11T00:04:12.707Z,100.00
2022-09-11T00:06:41.143Z,100.00
2022-09-11T00:09:09.268Z,100.00
2022-09-11T00:11:42.788Z,100.00
2022-09-11T00:14:14.185Z,100.00
2022-09-11T00:16:46.483Z,100.00
2022-09-11T00:19:20.218Z,100.00
2022-09-11T00:21:50.765Z,100.00
2022-09-11T00:24:19.964Z,100.00
2022-09-11T00:26:48.509Z,100.00
2022-09-11T00:29:16.540Z,100.00
2022-09-11T00:31:45.064Z,100.00
2022-09-11T00:34:13.253Z,100.00
2022-09-11T00:36:44.364Z,100.00
2022-09-11T00:39:14.487Z,100.00
2022-09-11T00:41:46.583Z,100.00
2022-09-11T00:44:16.695Z,100.00
2022-09-11T00:46:52.145Z,100.00
2022-09-11T00:49:30.856Z,100.00
2022-09-11T00:52:15.150Z,100.00
2022-09-11T00:54:52.441Z,100.00
2022-09-11T00:57:33.182Z,100.00
2022-09-11T01:00:02.402Z,100.00
2022-09-11T01:02:35.451Z,100.00
2022-09-11T01:05:05.068Z,100.00
2022-09-11T01:07:36.072Z,100.00
2022-09-11T01:10:06.792Z,100.00
2022-09-11T01:12:37.606Z,100.00
2022-09-11T01:15:28.621Z,100.00
2022-09-11T01:18:07.753Z,100.00
2022-09-11T01:21:00.149Z,100.00
2022-09-11T01:24:05.395Z,100.00
2022-09-11T01:26:58.833Z,100.00
2022-09-11T01:29:50.164Z,100.00
2022-09-11T01:32:24.723Z,100.00
2022-09-11T01:35:00.924Z,100.00
2022-09-11T01:37:40.967Z,100.00
2022-09-11T01:40:25.028Z,100.00
2022-09-11T01:43:00.549Z,100.00
2022-09-11T01:45:31.431Z,100.00
2022-09-11T01:48:01.109Z,100.00
2022-09-11T01:50:31.900Z,100.00
2022-09-11T01:53:05.362Z,100.00
2022-09-11T01:56:03.615Z,100.00
2022-09-11T01:58:35.773Z,100.00
2022-09-11T02:01:10.577Z,100.00
2022-09-11T02:03:44.862Z,100.00
2022-09-11T02:06:18.318Z,100.00
2022-09-11T02:09:00.608Z,100.00
2022-09-11T02:11:33.767Z,100.00
2022-09-11T02:14:26.012Z,100.00
2022-09-11T02:17:09.137Z,100.00
2022-09-11T02:19:38.866Z,100.00
2022-09-11T02:22:17.164Z,100.00
2022-09-11T02:24:45.129Z,100.00
2022-09-11T02:27:18.945Z,100.00
2022-09-11T02:29:47.148Z,100.00
2022-09-11T02:32:15.465Z,100.00
2022-09-11T02:34:46.827Z,100.00
2022-09-11T02:37:35.194Z,100.00
2022-09-11T02:40:31.510Z,100.00
2022-09-11T02:43:25.310Z,100.00
2022-09-11T02:46:09.514Z,100.00
2022-09-11T02:48:53.829Z,100.00
2022-09-11T02:51:47.068Z,100.00
2022-09-11T02:54:49.095Z,100.00
2022-09-11T02:57:45.710Z,100.00
2022-09-11T03:00:14.808Z,100.00
2022-09-11T03:02:44.850Z,100.00
2022-09-11T03:05:13.604Z,100.00
2022-09-11T03:07:41.796Z,100.00
2022-09-11T03:10:11.724Z,100.00
2022-09-11T03:12:40.270Z,100.00
2022-09-11T03:15:10.754Z,100.00
2022-09-11T03:17:39.252Z,100.00
2022-09-11T03:20:08.013Z,100.00
2022-09-11T03:22:35.961Z,100.00
2022-09-11T03:25:04.949Z,100.00
2022-09-11T03:27:33.085Z,100.00
2022-09-11T03:30:01.127Z,100.00
2022-09-11T03:32:29.418Z,100.00
2022-09-11T03:34:57.773Z,100.00
2022-09-11T03:37:26.517Z,100.00
2022-09-11T03:39:55.115Z,100.00
2022-09-11T03:42:23.137Z,100.00
2022-09-11T03:44:51.034Z,100.00
2022-09-11T03:47:22.502Z,100.00
2022-09-11T03:49:50.529Z,100.00
2022-09-11T03:52:18.683Z,100.00
2022-09-11T03:54:47.772Z,100.00
2022-09-11T03:57:16.142Z,100.00
2022-09-11T03:59:44.078Z,100.00
2022-09-11T04:02:12.081Z,100.00
2022-09-11T04:04:40.275Z,100.00
2022-09-11T04:07:08.375Z,100.00
2022-09-11T04:09:36.471Z,100.00
2022-09-11T04:12:04.929Z,100.00
2022-09-11T04:14:32.929Z,100.00
2022-09-11T04:17:00.894Z,100.00
2022-09-11T04:19:29.598Z,100.00
2022-09-11T04:21:57.519Z,100.00
2022-09-11T04:24:25.538Z,100.00
2022-09-11T04:26:57.341Z,100.00
2022-09-11T04:29:28.631Z,100.00
2022-09-11T04:31:58.075Z,100.00
2022-09-11T04:34:26.529Z,100.00
2022-09-11T04:36:55.584Z,100.00
2022-09-11T04:39:23.795Z,100.00
2022-09-11T04:41:51.839Z,100.00
2022-09-11T04:44:20.991Z,100.00
2022-09-11T04:46:49.060Z,100.00
2022-09-11T04:49:17.241Z,100.00
2022-09-11T04:51:45.588Z,100.00
2022-09-11T04:54:16.420Z,100.00
2022-09-11T04:56:44.590Z,100.00
2022-09-11T04:59:19.889Z,100.00
2022-09-11T05:01:48.777Z,100.00
2022-09-11T05:04:25.766Z,100.00
2022-09-11T05:06:54.538Z,100.00
2022-09-11T05:09:22.614Z,100.00
2022-09-11T05:11:50.685Z,100.00
2022-09-11T05:14:18.682Z,100.00
2022-09-11T05:16:46.705Z,100.00
2022-09-11T05:19:14.677Z,100.00
2022-09-11T05:21:42.709Z,100.00
2022-09-11T05:24:11.104Z,100.00
2022-09-11T05:26:39.074Z,100.00
2022-09-11T05:29:17.334Z,100.00
2022-09-11T05:31:45.440Z,100.00
2022-09-11T05:34:13.521Z,100.00
2022-09-11T05:36:42.094Z,100.00
2022-09-11T05:39:10.915Z,100.00
2022-09-11T05:41:38.935Z,100.00
2022-09-11T05:44:07.054Z,100.00
2022-09-11T05:46:34.974Z,100.00
2022-09-11T05:49:03.100Z,100.00
2022-09-11T05:51:35.737Z,100.00
2022-09-11T05:54:04.621Z,100.00
2022-09-11T05:56:32.534Z,100.00
2022-09-11T05:59:02.558Z,100.00
2022-09-11T06:01:31.507Z,100.00
2022-09-11T06:03:59.653Z,100.00
2022-09-11T06:06:27.556Z,100.00
2022-09-11T06:09:07.861Z,100.00
2022-09-11T06:11:35.946Z,100.00
2022-09-11T06:14:03.999Z,100.00
2022-09-11T06:16:32.959Z,100.00
2022-09-11T06:19:13.430Z,100.00
2022-09-11T06:21:44.845Z,100.00
2022-09-11T06:24:13.525Z,100.00
2022-09-11T06:26:53.741Z,100.00
2022-09-11T06:29:25.317Z,100.00
2022-09-11T06:32:14.150Z,100.00
2022-09-11T06:35:12.634Z,100.00
2022-09-11T06:38:11.074Z,100.00
2022-09-11T06:41:02.401Z,100.00
2022-09-11T06:43:31.764Z,100.00
2022-09-11T06:46:24.210Z,100.00
2022-09-11T06:48:54.092Z,100.00
2022-09-11T06:51:23.675Z,100.00
2022-09-11T06:53:59.594Z,100.00
2022-09-11T06:56:46.217Z,100.00
2022-09-11T06:59:24.127Z,100.00
2022-09-11T07:01:52.309Z,100.00
2022-09-11T07:04:20.521Z,100.00
2022-09-11T07:06:48.520Z,100.00
2022-09-11T07:09:16.670Z,100.00
2022-09-11T07:11:47.070Z,100.00
2022-09-11T07:14:15.076Z,100.00
2022-09-11T07:16:43.165Z,100.00
2022-09-11T07:19:11.324Z,100.00
2022-09-11T07:21:39.838Z,100.00
2022-09-11T07:24:09.525Z,100.00
2022-09-11T07:26:37.654Z,100.00
2022-09-11T07:29:06.810Z,100.00
2022-09-11T07:31:38.748Z,100.00
2022-09-11T07:34:06.931Z,100.00
2022-09-11T07:36:35.924Z,100.00
2022-09-11T07:39:05.520Z,100.00
2022-09-11T07:41:33.670Z,100.00
2022-09-11T07:44:01.944Z,100.00
2022-09-11T07:46:31.398Z,100.00
2022-09-11T07:49:02.417Z,100.00
2022-09-11T07:51:30.353Z,100.00
2022-09-11T07:53:59.692Z,100.00
2022-09-11T07:56:28.724Z,100.00
2022-09-11T07:58:57.355Z,100.00
2022-09-11T08:01:29.967Z,100.00
2022-09-11T08:04:01.397Z,100.00
2022-09-11T08:06:33.090Z,100.00
2022-09-11T08:09:05.705Z,100.00
2022-09-11T08:11:38.725Z,100.00
2022-09-11T08:14:07.599Z,100.00
2022-09-11T08:16:39.060Z,100.00
2022-09-11T08:19:09.133Z,100.00
2022-09-11T08:21:37.256Z,100.00
2022-09-11T08:24:05.434Z,100.00
2022-09-11T08:26:36.824Z,100.00
2022-09-11T08:29:05.384Z,100.00
2022-09-11T08:31:35.404Z,100.00
2022-09-11T08:34:03.887Z,100.00
2022-09-11T08:36:32.003Z,100.00
2022-09-11T08:39:03.028Z,100.00
2022-09-11T08:41:50.014Z,100.00
2022-09-11T08:44:25.737Z,100.00
2022-09-11T08:47:02.823Z,100.00
2022-09-11T08:49:49.505Z,100.00
2022-09-11T08:52:17.711Z,100.00
2022-09-11T08:54:47.867Z,100.00
2022-09-11T08:57:40.977Z,100.00
2022-09-11T09:00:28.485Z,100.00
2022-09-11T09:03:19.193Z,100.00
2022-09-11T09:06:10.954Z,100.00
2022-09-11T09:09:00.839Z,100.00
2022-09-11T09:11:47.330Z,100.00
2022-09-11T09:14:33.771Z,100.00
2022-09-11T09:17:17.430Z,100.00
2022-09-11T09:20:06.444Z,100.00
2022-09-11T09:23:00.230Z,100.00
2022-09-11T09:25:31.004Z,100.00
2022-09-11T09:28:17.578Z,100.00
2022-09-11T09:30:57.602Z,100.00
2022-09-11T09:33:50.044Z,100.00
2022-09-11T09:36:24.168Z,100.00
2022-09-11T09:38:54.309Z,100.00
2022-09-11T09:41:44.113Z,100.00
2022-09-11T09:44:24.228Z,100.00
2022-09-11T09:46:55.975Z,100.00
2022-09-11T09:49:34.784Z,100.00
2022-09-11T09:52:18.884Z,100.00
2022-09-11T09:54:57.478Z,100.00
2022-09-11T09:57:32.012Z,100.00
2022-09-11T10:00:09.915Z,100.00
2022-09-11T10:03:13.818Z,100.00
2022-09-11T10:05:44.054Z,100.00
2022-09-11T10:08:38.394Z,100.00
2022-09-11T10:11:10.850Z,100.00
2022-09-11T10:13:42.877Z,100.00
2022-09-11T10:16:40.449Z,100.00
2022-09-11T10:19:42.241Z,100.00
2022-09-11T10:22:31.545Z,100.00
2022-09-11T10:25:11.854Z,100.00
2022-09-11T10:28:04.797Z,100.00
2022-09-11T10:30:43.309Z,100.00
2022-09-11T10:33:23.886Z,100.00
2022-09-11T10:36:09.254Z,100.00
2022-09-11T10:38:45.302Z,100.00
2022-09-11T10:41:14.087Z,100.00
2022-09-11T10:43:44.919Z,100.00
2022-09-11T10:46:18.634Z,100.00
2022-09-11T10:48:55.667Z,100.00
2022-09-11T10:51:26.860Z,100.00
2022-09-11T10:54:07.485Z,100.00
2022-09-11T10:56:43.334Z,99.99
2022-09-11T10:59:20.006Z,99.35
2022-09-11T11:01:50.446Z,99.30
2022-09-11T11:04:19.185Z,97.92
2022-09-11T11:07:10.103Z,96.53
2022-09-11T11:10:03.811Z,96.99
2022-09-11T11:13:05.293Z,96.17
2022-09-11T11:15:53.978Z,96.59
2022-09-11T11:18:47.838Z,96.28
2022-09-11T11:21:37.785Z,94.15
2022-09-11T11:24:29.214Z,93.54
2022-09-11T11:27:04.795Z,92.08
2022-09-11T11:29:33.905Z,91.60
2022-09-11T11:32:15.813Z,91.94
2022-09-11T11:35:01.795Z,93.20
2022-09-11T11:37:36.358Z,93.10
2022-09-11T11:40:50.236Z,92.30
2022-09-11T11:43:23.445Z,91.94
2022-09-11T11:46:02.555Z,92.08
2022-09-11T11:48:42.413Z,92.57
2022-09-11T11:51:18.993Z,90.81
2022-09-11T11:53:51.469Z,89.01
2022-09-11T11:56:31.114Z,89.45
2022-09-11T11:59:17.073Z,87.91
2022-09-11T12:02:11.974Z,88.25
2022-09-11T12:05:02.354Z,88.04
2022-09-11T12:07:41.509Z,87.37
2022-09-11T12:10:28.807Z,86.28
2022-09-11T12:13:01.914Z,86.92
2022-09-11T12:15:32.480Z,86.97
2022-09-11T12:18:12.379Z,86.26
2022-09-11T12:20:46.369Z,84.52
2022-09-11T12:23:56.400Z,85.31
2022-09-11T12:26:30.815Z,83.81
2022-09-11T12:29:14.901Z,83.93
2022-09-11T12:31:49.125Z,85.44
2022-09-11T12:34:38.936Z,83.12
2022-09-11T12:37:15.271Z,82.06
2022-09-11T12:40:03.717Z,82.08
2022-09-11T12:42:31.864Z,80.11
2022-09-11T12:45:00.476Z,80.79
2022-09-11T12:47:40.633Z,79.43
2022-09-11T12:50:11.289Z,78.32
2022-09-11T12:53:02.383Z,78.09
2022-09-11T12:55:37.194Z,78.82
2022-09-11T12:58:23.085Z,77.59
2022-09-11T13:01:13.765Z,74.88
2022-09-11T13:03:57.345Z,74.96
2022-09-11T13:06:41.347Z,73.70
2022-09-11T13:09:30.286Z,72.13
2022-09-11T13:12:18.265Z,70.90
2022-09-11T13:14:51.114Z,70.62
2022-09-11T13:17:51.995Z,71.66
2022-09-11T13:20:23.134Z,70.41
2022-09-11T13:22:58.143Z,71.33
2022-09-11T13:25:28.342Z,72.70
2022-09-11T13:28:03.885Z,71.98
2022-09-11T13:30:33.194Z,72.15
2022-09-11T13:33:08.651Z,71.09
2022-09-11T13:35:40.370Z,71.18
2022-09-11T13:38:25.774Z,71.96
2022-09-11T13:41:01.455Z,70.37
2022-09-11T13:43:37.524Z,69.05
2022-09-11T13:46:23.314Z,70.26
2022-09-11T13:48:57.482Z,69.74
2022-09-11T13:51:32.107Z,68.27
2022-09-11T13:54:13.136Z,67.06
2022-09-11T13:57:12.718Z,68.23
2022-09-11T13:59:45.265Z,67.07
2022-09-11T14:02:23.713Z,70.63
2022-09-11T14:04:53.504Z,70.06
2022-09-11T14:07:24.892Z,68.18
2022-09-11T14:10:08.401Z,71.54
2022-09-11T14:12:51.722Z,72.15
2022-09-11T14:15:42.554Z,72.95
2022-09-11T14:18:17.784Z,71.91
2022-09-11T14:20:46.513Z,70.91
2022-09-11T14:23:45.230Z,68.13
2022-09-11T14:26:19.934Z,67.61
2022-09-11T14:29:10.386Z,68.18
2022-09-11T14:31:56.328Z,69.82
2022-09-11T14:34:29.364Z,72.64
2022-09-11T14:37:11.967Z,72.14
2022-09-11T14:39:47.972Z,73.31
2022-09-11T14:42:21.402Z,74.62
2022-09-11T14:44:50.014Z,74.61
2022-09-11T14:47:23.254Z,74.26
2022-09-11T14:49:56.126Z,73.48
2022-09-11T14:52:29.543Z,72.40
2022-09-11T14:54:57.916Z,73.37
2022-09-11T14:57:33.150Z,73.63
2022-09-11T15:00:01.368Z,73.62
2022-09-11T15:02:29.846Z,72.67
2022-09-11T15:04:58.676Z,70.35
2022-09-11T15:07:28.725Z,71.39
2022-09-11T15:09:56.861Z,71.15
2022-09-11T15:12:25.044Z,72.53
2022-09-11T15:14:57.229Z,73.40
2022-09-11T15:17:31.863Z,71.86
2022-09-11T15:20:00.448Z,73.78
2022-09-11T15:22:29.124Z,75.41
2022-09-11T15:24:57.388Z,76.41
2022-09-11T15:27:25.977Z,76.82
2022-09-11T15:29:54.966Z,77.44
2022-09-11T15:32:23.343Z,77.82
2022-09-11T15:34:51.958Z,78.93
2022-09-11T15:37:20.312Z,79.77
2022-09-11T15:39:51.084Z,81.02
2022-09-11T15:42:19.769Z,81.69
2022-09-11T15:44:48.154Z,82.52
2022-09-11T15:47:16.895Z,82.66
2022-09-11T15:49:45.216Z,83.54
2022-09-11T15:52:14.735Z,84.47
2022-09-11T15:54:45.725Z,86.05
2022-09-11T15:57:13.884Z,87.39
2022-09-11T15:59:42.985Z,88.17
2022-09-11T16:02:12.625Z,88.63
2022-09-11T16:04:40.845Z,88.74
2022-09-11T16:07:09.394Z,88.87
2022-09-11T16:09:37.612Z,89.47
2022-09-11T16:12:05.960Z,90.08
2022-09-11T16:14:38.624Z,90.95
2022-09-11T16:17:08.397Z,92.32
2022-09-11T16:19:36.709Z,93.09
2022-09-11T16:22:08.164Z,93.66
2022-09-11T16:24:38.434Z,93.95
2022-09-11T16:27:10.955Z,94.39
2022-09-11T16:30:20.290Z,94.48
2022-09-11T16:32:38.363Z,95.16
2022-09-11T16:35:10.165Z,95.83
2022-09-11T16:37:38.604Z,96.20
2022-09-11T16:40:08.514Z,96.60
2022-09-11T16:42:37.160Z,97.14
2022-09-11T16:45:05.735Z,96.92
2022-09-11T16:47:35.016Z,96.83
2022-09-11T16:50:06.862Z,96.84
2022-09-11T16:52:36.996Z,97.06
2022-09-11T16:55:08.596Z,96.60
2022-09-11T16:57:37.532Z,96.55
2022-09-11T17:00:07.932Z,96.56
2022-09-11T17:02:37.861Z,96.68
2022-09-11T17:05:08.383Z,96.92
2022-09-11T17:07:36.742Z,97.30
2022-09-11T17:10:05.046Z,97.53
2022-09-11T17:12:33.079Z,98.30
2022-09-11T17:15:02.074Z,98.83
2022-09-11T17:17:31.456Z,98.80
2022-09-11T17:19:59.557Z,99.23
2022-09-11T17:22:29.980Z,99.61
2022-09-11T17:24:58.047Z,99.96
2022-09-11T17:27:26.090Z,99.91
2022-09-11T17:29:54.084Z,99.80
2022-09-11T17:32:30.069Z,99.74
2022-09-11T17:34:59.179Z,99.71
2022-09-11T17:37:30.680Z,99.80
2022-09-11T17:39:59.102Z,99.56
2022-09-11T17:42:29.119Z,99.80
2022-09-11T17:44:57.086Z,99.77
2022-09-11T17:47:29.260Z,99.74
2022-09-11T17:49:57.700Z,99.90
2022-09-11T17:52:26.838Z,100.00
2022-09-11T17:54:54.826Z,100.00
2022-09-11T17:57:25.672Z,100.00
2022-09-11T17:59:55.610Z,100.00
2022-09-11T18:02:24.087Z,100.00
2022-09-11T18:04:52.967Z,100.00
2022-09-11T18:07:21.542Z,100.00
2022-09-11T18:09:54.104Z,100.00
2022-09-11T18:12:26.875Z,100.00
2022-09-11T18:14:57.089Z,100.00
2022-09-11T18:17:25.109Z,100.00
2022-09-11T18:19:53.175Z,100.00
2022-09-11T18:22:22.734Z,100.00
2022-09-11T18:24:52.280Z,100.00
2022-09-11T18:27:20.484Z,100.00
2022-09-11T18:29:50.127Z,100.00
2022-09-11T18:32:19.920Z,100.00
2022-09-11T18:34:48.724Z,100.00
2022-09-11T18:37:17.619Z,100.00
2022-09-11T18:39:47.211Z,100.00
2022-09-11T18:42:15.399Z,100.00
2022-09-11T18:44:43.359Z,100.00
2022-09-11T18:47:11.659Z,100.00
2022-09-11T18:49:39.777Z,100.00
2022-09-11T18:52:09.104Z,100.00
2022-09-11T18:54:37.472Z,100.00
2022-09-11T18:57:05.660Z,100.00
2022-09-11T18:59:33.819Z,99.97
2022-09-11T19:02:02.471Z,99.82
2022-09-11T19:04:30.837Z,99.45
2022-09-11T19:07:00.279Z,98.76
2022-09-11T19:09:29.482Z,98.29
2022-09-11T19:12:00.298Z,96.86
2022-09-11T19:14:28.814Z,96.50
2022-09-11T19:16:56.831Z,96.61
2022-09-11T19:19:25.985Z,96.08
2022-09-11T19:21:53.912Z,95.27
2022-09-11T19:24:23.894Z,94.94
2022-09-11T19:26:53.191Z,94.24
2022-09-11T19:29:22.794Z,92.83
2022-09-11T19:31:52.961Z,92.29
2022-09-11T19:34:24.765Z,92.18
2022-09-11T19:36:53.609Z,92.13
2022-09-11T19:39:22.004Z,91.06
2022-09-11T19:41:50.550Z,90.30
2022-09-11T19:44:21.064Z,90.52
2022-09-11T19:46:54.052Z,90.00
2022-09-11T19:49:22.787Z,90.89
2022-09-11T19:51:52.948Z,92.16
2022-09-11T19:54:22.636Z,93.45
2022-09-11T19:56:51.656Z,93.69
2022-09-11T19:59:19.949Z,94.29
2022-09-11T20:01:48.294Z,94.84
2022-09-11T20:04:17.734Z,95.59
2022-09-11T20:09:32.426Z,95.80
2022-09-11T20:12:01.858Z,95.77
2022-09-11T20:14:31.443Z,96.15
2022-09-11T20:17:01.245Z,96.46
2022-09-11T20:19:29.687Z,97.06
2022-09-11T20:21:58.064Z,97.21
2022-09-11T20:24:26.199Z,97.50
2022-09-11T20:26:54.977Z,97.76
2022-09-11T20:29:23.079Z,97.83
2022-09-11T20:31:51.335Z,98.16
2022-09-11T20:34:20.422Z,98.41
2022-09-11T20:36:48.557Z,98.53
2022-09-11T20:39:17.199Z,98.84
2022-09-11T20:41:45.535Z,98.81
2022-09-11T20:44:13.509Z,99.00
2022-09-11T20:46:43.810Z,99.32
2022-09-11T20:49:12.391Z,99.21
2022-09-11T20:51:40.770Z,99.48
2022-09-11T20:54:10.288Z,99.48
2022-09-11T20:56:38.544Z,99.36
2022-09-11T20:59:07.054Z,99.51
2022-09-11T21:01:35.364Z,99.37
2022-09-11T21:04:04.797Z,99.49
2022-09-11T21:06:35.052Z,99.44
2022-09-11T21:09:09.205Z,99.62
2022-09-11T21:11:39.544Z,99.61
2022-09-11T21:14:07.576Z,99.73
2022-09-11T21:16:35.800Z,99.74
2022-09-11T21:19:05.586Z,99.86
2022-09-11T21:21:35.685Z,99.87
2022-09-11T21:24:06.677Z,99.94
2022-09-11T21:26:35.461Z,99.93
2022-09-11T21:29:07.751Z,100.00
2022-09-11T21:31:39.233Z,100.00
2022-09-11T21:34:07.417Z,100.00
2022-09-11T21:36:37.310Z,100.00
2022-09-11T21:39:05.752Z,100.00
2022-09-11T21:41:33.854Z,100.00
2022-09-11T21:44:02.135Z,100.00
2022-09-11T21:46:30.150Z,100.00
2022-09-11T21:48:58.219Z,100.00
2022-09-11T21:51:26.315Z,100.00
2022-09-11T21:54:02.030Z,100.00
2022-09-11T21:56:33.377Z,100.00
2022-09-11T21:59:02.589Z,98.68
2022-09-11T22:01:32.184Z,97.26
2022-09-11T22:04:00.839Z,93.26
2022-09-11T22:06:30.106Z,92.23
2022-09-11T22:08:58.594Z,91.39
2022-09-11T22:11:27.133Z,90.01
2022-09-11T22:13:55.298Z,89.28
2022-09-11T22:16:23.763Z,89.80
2022-09-11T22:18:54.876Z,89.81
2022-09-11T22:21:23.086Z,89.20
2022-09-11T22:23:51.859Z,89.22
2022-09-11T22:26:24.233Z,89.36
2022-09-11T22:28:52.790Z,88.91
2022-09-11T22:31:24.211Z,89.36
2022-09-11T22:33:54.114Z,88.64
2022-09-11T22:36:28.250Z,87.89
2022-09-11T22:38:58.113Z,87.83
2022-09-11T22:41:27.208Z,87.83
2022-09-11T22:43:55.448Z,88.06
2022-09-11T22:46:27.164Z,88.16
2022-09-11T22:48:55.970Z,88.61
2022-09-11T22:51:23.943Z,88.09
2022-09-11T22:53:52.003Z,87.70
2022-09-11T22:56:20.289Z,87.48
2022-09-11T22:58:48.279Z,87.88
2022-09-11T23:01:22.181Z,88.07
2022-09-11T23:03:54.911Z,88.16
2022-09-11T23:06:42.074Z,88.27
2022-09-11T23:09:13.768Z,88.63
2022-09-11T23:11:41.840Z,88.80
2022-09-11T23:14:14.159Z,89.31
2022-09-11T23:16:44.068Z,89.15
2022-09-11T23:19:15.111Z,89.49
2022-09-11T23:21:43.601Z,89.25
2022-09-11T23:24:14.773Z,89.82
2022-09-11T23:26:44.194Z,90.39
2022-09-11T23:29:13.083Z,89.90
2022-09-11T23:31:41.788Z,89.68
2022-09-11T23:34:16.926Z,89.88
2022-09-11T23:36:45.283Z,89.98
2022-09-11T23:39:14.613Z,89.76
2022-09-11T23:41:42.743Z,89.57
2022-09-11T23:44:11.052Z,90.01
2022-09-11T23:46:39.343Z,90.20
2022-09-11T23:49:07.576Z,90.36
2022-09-11T23:51:35.561Z,90.04
2022-09-11T23:54:03.757Z,90.70
2022-09-11T23:56:31.851Z,92.02
2022-09-11T23:58:59.964Z,92.07
